createdAt,value
2023-05-03T00:01:03.268Z,101676.22
2023-05-03T00:06:12.928Z,101670.00
2023-05-03T00:11:17.138Z,101662.94
2023-05-03T00:16:20.598Z,101662.09
2023-05-03T00:21:23.456Z,101660.13
2023-05-03T00:26:28.900Z,101666.91
2023-05-03T00:31:31.832Z,101668.84
2023-05-03T00:36:36.943Z,101674.56
2023-05-03T00:41:41.613Z,101669.66
2023-05-03T00:46:44.493Z,101670.94
2023-05-03T00:51:47.535Z,101662.75
2023-05-03T00:56:52.148Z,101664.47
2023-05-03T01:01:55.799Z,101657.06
2023-05-03T01:07:10.729Z,101665.25
2023-05-03T01:12:29.729Z,101672.78
2023-05-03T01:17:37.949Z,101671.00
2023-05-03T01:22:47.983Z,101668.75
2023-05-03T01:27:52.141Z,101675.53
2023-05-03T01:33:02.038Z,101674.88
2023-05-03T01:38:06.056Z,101664.88
2023-05-03T01:43:13.354Z,101673.75
2023-05-03T01:48:17.275Z,101677.84
2023-05-03T01:53:20.080Z,101687.00
2023-05-03T01:58:24.240Z,101683.19
2023-05-03T02:03:26.998Z,101678.31
2023-05-03T02:08:29.772Z,101691.56
2023-05-03T02:13:33.913Z,101702.28
2023-05-03T02:18:36.810Z,101696.34
2023-05-03T02:23:39.719Z,101695.56
2023-05-03T02:28:43.867Z,101689.28
2023-05-03T02:33:46.724Z,101704.03
2023-05-03T02:38:49.683Z,101706.03
2023-05-03T02:43:53.948Z,101709.94
2023-05-03T02:48:56.810Z,101714.09
2023-05-03T02:53:59.683Z,101714.22
2023-05-03T02:59:03.953Z,101723.47
2023-05-03T03:04:08.079Z,101729.03
2023-05-03T03:09:12.541Z,101728.50
2023-05-03T03:14:17.869Z,101723.59
2023-05-03T03:19:20.753Z,101724.94
2023-05-03T03:24:23.633Z,101716.59
2023-05-03T03:29:31.214Z,101710.09
2023-05-03T03:34:34.431Z,101710.19
2023-05-03T03:39:39.124Z,101701.72
2023-05-03T03:44:43.680Z,101705.03
2023-05-03T03:49:46.530Z,101698.97
2023-05-03T03:54:49.441Z,101705.03
2023-05-03T03:59:53.887Z,101705.22
2023-05-03T04:04:56.873Z,101702.13
2023-05-03T04:09:59.936Z,101698.38
2023-05-03T04:15:04.715Z,101699.13
2023-05-03T04:20:11.089Z,101701.09
2023-05-03T04:25:17.041Z,101711.88
2023-05-03T04:30:25.836Z,101709.03
2023-05-03T04:35:31.326Z,101716.50
2023-05-03T04:40:37.560Z,101704.13
2023-05-03T04:45:45.544Z,101718.97
2023-05-03T04:50:53.802Z,101719.50
2023-05-03T04:55:58.584Z,101717.69
2023-05-03T05:01:03.588Z,101713.81
2023-05-03T05:06:09.917Z,101719.75
2023-05-03T05:11:15.721Z,101723.78
2023-05-03T05:16:20.289Z,101717.53
2023-05-03T05:21:28.502Z,101716.56
2023-05-03T05:26:32.681Z,101711.94
2023-05-03T05:31:37.631Z,101724.53
2023-05-03T05:36:43.122Z,101728.16
2023-05-03T05:41:46.434Z,101739.13
2023-05-03T05:46:50.875Z,101742.91
2023-05-03T05:51:55.356Z,101754.97
2023-05-03T05:56:58.992Z,101756.00
2023-05-03T06:02:03.796Z,101756.38
2023-05-03T06:07:06.836Z,101762.50
2023-05-03T06:12:10.402Z,101763.47
2023-05-03T06:17:18.808Z,101776.56
2023-05-03T06:22:21.638Z,101774.16
2023-05-03T06:27:25.826Z,101774.31
2023-05-03T06:32:31.431Z,101779.78
2023-05-03T06:37:34.686Z,101779.03
2023-05-03T06:42:37.536Z,101774.75
2023-05-03T06:47:50.224Z,101781.53
2023-05-03T06:52:55.282Z,101782.00
2023-05-03T06:57:58.105Z,101776.44
2023-05-03T07:03:02.337Z,101776.44
2023-05-03T07:08:05.883Z,101777.28
2023-05-03T07:13:08.684Z,101776.00
2023-05-03T07:18:12.925Z,101771.44
2023-05-03T07:23:16.094Z,101775.66
2023-05-03T07:28:18.888Z,101773.22
2023-05-03T07:33:23.339Z,101767.19
2023-05-03T07:38:26.279Z,101757.84
2023-05-03T07:43:29.330Z,101746.22
2023-05-03T07:48:33.525Z,101738.91
2023-05-03T07:53:36.444Z,101751.69
2023-05-03T07:58:40.842Z,101745.81
2023-05-03T08:03:46.160Z,101739.63
2023-05-03T08:08:49.078Z,101731.59
2023-05-03T08:13:51.928Z,101725.94
2023-05-03T08:18:56.141Z,101721.69
2023-05-03T08:23:59.258Z,101727.88
2023-05-03T08:29:03.452Z,101723.56
2023-05-03T08:34:07.946Z,101722.44
2023-05-03T08:39:11.510Z,101721.50
2023-05-03T08:44:22.192Z,101715.31
2023-05-03T08:49:26.989Z,101712.75
2023-05-03T08:54:30.726Z,101714.25
2023-05-03T08:59:33.514Z,101704.44
2023-05-03T09:04:37.679Z,101713.97
2023-05-03T09:09:40.699Z,101716.00
2023-05-03T09:14:44.641Z,101719.41
2023-05-03T09:19:56.233Z,101713.19
2023-05-03T09:25:01.004Z,101708.94
2023-05-03T09:30:19.361Z,101700.41
2023-05-03T09:35:23.856Z,101709.56
2023-05-03T09:40:27.082Z,101707.53
2023-05-03T09:45:31.447Z,101705.03
2023-05-03T09:50:36.839Z,101718.38
2023-05-03T09:55:41.826Z,101696.34
2023-05-03T10:00:50.966Z,101692.91
2023-05-03T10:05:57.049Z,101691.59
2023-05-03T10:11:00.383Z,101683.44
2023-05-03T10:16:08.360Z,101683.56
2023-05-03T10:21:21.008Z,101663.34
2023-05-03T10:26:25.018Z,101664.91
2023-05-03T10:31:46.310Z,101669.78
2023-05-03T10:36:53.270Z,101659.38
2023-05-03T10:42:01.431Z,101657.56
2023-05-03T10:47:12.442Z,101668.94
2023-05-03T10:52:48.632Z,101658.47
2023-05-03T10:57:55.391Z,101666.47
2023-05-03T11:03:32.249Z,101649.19
2023-05-03T11:08:37.830Z,101657.16
2023-05-03T11:13:42.278Z,101641.28
2023-05-03T11:18:45.923Z,101631.56
2023-05-03T11:23:48.714Z,101616.47
2023-05-03T11:28:54.500Z,101609.88
2023-05-03T11:33:57.954Z,101606.81
2023-05-03T11:39:01.367Z,101604.69
2023-05-03T11:44:15.966Z,101605.41
2023-05-03T11:49:20.304Z,101594.75
2023-05-03T11:54:26.900Z,101583.13
2023-05-03T11:59:39.504Z,101587.25
2023-05-03T12:04:45.488Z,101596.91
2023-05-03T12:10:00.713Z,101585.09
2023-05-03T12:15:16.235Z,101592.75
2023-05-03T12:25:34.092Z,101581.41
2023-05-03T12:30:40.665Z,101578.06
2023-05-03T12:35:46.764Z,101581.53
2023-05-03T12:40:51.076Z,101567.44
2023-05-03T12:46:20.291Z,101563.47
2023-05-03T12:51:20.671Z,101553.97
2023-05-03T12:56:32.160Z,101557.19
2023-05-03T13:02:40.854Z,101550.72
2023-05-03T13:07:01.558Z,101548.88
2023-05-03T13:12:04.925Z,101537.34
2023-05-03T13:17:09.219Z,101524.03
2023-05-03T13:22:12.875Z,101524.91
2023-05-03T13:27:16.360Z,101523.13
2023-05-03T13:32:20.599Z,101510.88
2023-05-03T13:37:24.406Z,101507.53
2023-05-03T13:42:27.267Z,101498.28
2023-05-03T13:47:47.216Z,101500.16
2023-05-03T13:52:55.177Z,101482.53
2023-05-03T13:57:58.052Z,101472.44
2023-05-03T14:03:02.396Z,101459.31
2023-05-03T14:08:06.088Z,101470.38
2023-05-03T14:13:09.063Z,101464.41
2023-05-03T14:18:13.496Z,101449.56
2023-05-03T14:23:16.928Z,101447.38
2023-05-03T14:28:20.209Z,101447.94
2023-05-03T14:33:24.526Z,101435.38
2023-05-03T14:38:27.515Z,101441.03
2023-05-03T14:43:31.448Z,101430.94
2023-05-03T14:48:35.704Z,101422.22
2023-05-03T14:53:38.596Z,101414.63
2023-05-03T14:58:41.621Z,101405.44
2023-05-03T15:03:45.870Z,101391.41
2023-05-03T15:08:48.671Z,101396.94
2023-05-03T15:13:51.546Z,101388.72
2023-05-03T15:18:56.070Z,101388.31
2023-05-03T15:23:58.943Z,101391.88
2023-05-03T15:29:01.796Z,101389.09
2023-05-03T15:34:07.127Z,101380.97
2023-05-03T15:39:10.153Z,101388.59
2023-05-03T15:44:14.861Z,101380.22
2023-05-03T15:49:19.427Z,101380.72
2023-05-03T15:54:22.383Z,101380.28
2023-05-03T15:59:25.127Z,101378.75
2023-05-03T16:04:29.390Z,101370.06
2023-05-03T16:09:32.569Z,101377.53
2023-05-03T16:14:36.320Z,101373.03
2023-05-03T16:19:40.521Z,101364.75
2023-05-03T16:24:43.318Z,101376.47
2023-05-03T16:29:46.163Z,101365.72
2023-05-03T16:34:50.877Z,101378.03
2023-05-03T16:39:53.896Z,101372.72
2023-05-03T16:44:56.981Z,101372.72
2023-05-03T16:50:01.265Z,101362.16
2023-05-03T16:55:04.146Z,101358.41
2023-05-03T17:00:09.762Z,101347.09
2023-05-03T17:05:15.268Z,101342.03
2023-05-03T17:10:18.029Z,101330.25
2023-05-03T17:15:21.050Z,101339.81
2023-05-03T17:20:25.258Z,101334.19
2023-05-03T17:25:28.245Z,101337.38
2023-05-03T17:30:31.205Z,101336.81
2023-05-03T17:35:35.398Z,101338.13
2023-05-03T17:40:41.001Z,101331.06
2023-05-03T17:45:45.045Z,101327.75
2023-05-03T17:50:58.614Z,101338.72
2023-05-03T17:56:01.467Z,101334.16
2023-05-03T18:01:04.780Z,101339.66
2023-05-03T18:06:12.058Z,101347.41
2023-05-03T18:11:14.937Z,101346.34
2023-05-03T18:16:17.918Z,101346.06
2023-05-03T18:21:23.526Z,101347.00
2023-05-03T18:26:26.344Z,101352.16
2023-05-03T18:31:29.289Z,101361.66
2023-05-03T18:36:33.615Z,101354.78
2023-05-03T18:41:37.284Z,101358.56
2023-05-03T18:46:40.347Z,101356.94
2023-05-03T18:51:44.836Z,101350.03
2023-05-03T18:56:47.722Z,101346.56
2023-05-03T19:01:50.896Z,101348.19
2023-05-03T19:06:55.055Z,101347.94
2023-05-03T19:11:58.663Z,101343.69
2023-05-03T19:17:01.550Z,101348.16
2023-05-03T19:22:06.006Z,101351.13
2023-05-03T19:27:08.830Z,101359.28
2023-05-03T19:32:12.033Z,101360.22
2023-05-03T19:37:16.363Z,101354.50
2023-05-03T19:42:19.142Z,101365.72
2023-05-03T19:47:22.365Z,101361.03
2023-05-03T19:52:26.558Z,101367.59
2023-05-03T19:57:29.608Z,101361.47
2023-05-03T20:02:32.586Z,101355.13
2023-05-03T20:07:37.453Z,101361.25
2023-05-03T20:12:40.300Z,101368.28
2023-05-03T20:17:43.221Z,101366.53
2023-05-03T20:22:48.842Z,101367.28
2023-05-03T20:27:51.689Z,101367.25
2023-05-03T20:32:54.506Z,101363.28
2023-05-03T20:37:58.867Z,101359.06
2023-05-03T20:43:02.287Z,101358.00
2023-05-03T20:48:05.695Z,101352.25
2023-05-03T20:53:10.296Z,101351.59
2023-05-03T20:58:15.234Z,101346.19
2023-05-03T21:03:18.159Z,101348.31
2023-05-03T21:08:22.446Z,101344.19
2023-05-03T21:13:25.311Z,101344.28
2023-05-03T21:18:28.147Z,101346.47
2023-05-03T21:23:32.337Z,101342.28
2023-05-03T21:28:35.142Z,101349.00
2023-05-03T21:33:38.211Z,101342.69
2023-05-03T21:38:42.497Z,101343.16
2023-05-03T21:43:45.616Z,101337.78
2023-05-03T21:48:48.385Z,101330.88
2023-05-03T21:53:52.725Z,101323.41
2023-05-03T21:58:55.510Z,101323.88
2023-05-03T22:03:58.414Z,101320.59
2023-05-03T22:09:02.708Z,101318.41
2023-05-03T22:14:08.336Z,101317.59
2023-05-03T22:19:11.992Z,101319.66
2023-05-03T22:24:16.075Z,101320.63
2023-05-03T22:29:19.048Z,101325.59
2023-05-03T22:34:22.197Z,101327.56
2023-05-03T22:39:26.702Z,101316.03
2023-05-03T22:44:29.477Z,101316.63
2023-05-03T22:49:32.271Z,101316.31
2023-05-03T22:54:36.527Z,101318.56
2023-05-03T22:59:39.307Z,101314.97
2023-05-03T23:04:41.890Z,101316.41
2023-05-03T23:09:48.479Z,101297.81
2023-05-03T23:14:51.218Z,101296.00
2023-05-03T23:19:54.582Z,101286.66
2023-05-03T23:24:59.019Z,101282.00
2023-05-03T23:30:01.980Z,101283.59
2023-05-03T23:35:05.986Z,101282.97
2023-05-03T23:40:12.921Z,101282.78
2023-05-03T23:45:15.763Z,101282.63
2023-05-03T23:50:18.608Z,101275.47
2023-05-03T23:55:22.868Z,101267.00
